Time;durP1;ratioP1;P1;durP2;ratioP2;P2;SDS_P1;SDS_P2;PMS_P1;PMS_P2;Temp;Humidity;BMP_temperature;BMP_pressure;BME280_temperature;BME280_humidity;BME280_pressure;Samples;Min_cycle;Max_cycle;Signal;HPM_P1;HPM_P2
2022/07/03 00:01:51;;;;;;;30.73;24.50;;;;;;;17.17;74.85;101594.00;5009849;28;20523;-54
2022/07/03 00:04:18;;;;;;;30.27;21.95;;;;;;;17.12;74.97;101602.53;5010664;28;20022;-54
2022/07/03 00:06:43;;;;;;;129.13;70.82;;;;;;;17.04;74.66;101597.78;4992841;28;20050;-54
2022/07/03 00:09:08;;;;;;;229.02;105.63;;;;;;;16.97;74.80;101601.09;5010462;28;20486;-54
2022/07/03 00:11:34;;;;;;;65.90;37.88;;;;;;;16.96;74.72;101605.03;5009673;28;20105;-54
2022/07/03 00:13:59;;;;;;;26.42;16.58;;;;;;;16.90;74.66;101609.13;5010334;28;20481;-54
2022/07/03 00:16:25;;;;;;;25.48;17.20;;;;;;;16.88;75.03;101594.66;5010747;28;20022;-54
2022/07/03 00:18:51;;;;;;;47.30;29.05;;;;;;;16.81;75.42;101596.00;5009943;28;20053;-53
2022/07/03 00:21:24;;;;;;;59.70;30.73;;;;;;;16.76;75.73;101598.97;5010213;28;20033;-55
2022/07/03 00:24:08;;;;;;;29.30;17.42;;;;;;;16.78;75.07;101595.84;4992824;28;20057;-55
2022/07/03 00:26:36;;;;;;;24.55;15.95;;;;;;;16.69;76.02;101593.03;5010045;28;20087;-55
2022/07/03 00:29:03;;;;;;;28.00;17.30;;;;;;;16.65;76.00;101598.47;5010260;28;20049;-55
2022/07/03 00:31:30;;;;;;;20.60;14.05;;;;;;;16.61;76.15;101603.09;5010248;28;20482;-54
2022/07/03 00:33:58;;;;;;;21.85;14.18;;;;;;;16.57;76.21;101604.88;5010110;28;20030;-53
2022/07/03 00:36:26;;;;;;;22.35;14.60;;;;;;;16.58;76.21;101609.31;4992358;28;20069;-54
2022/07/03 00:38:51;;;;;;;20.55;14.00;;;;;;;16.57;76.15;101613.25;5010651;28;20114;-52
2022/07/03 00:41:31;;;;;;;20.85;14.52;;;;;;;16.55;75.77;101615.56;5009835;28;20117;-53
2022/07/03 00:43:57;;;;;;;20.20;14.52;;;;;;;16.53;75.97;101626.25;5010189;28;20176;-54
2022/07/03 00:46:24;;;;;;;24.92;15.90;;;;;;;16.50;75.98;101621.31;5010528;28;20445;-54
2022/07/03 00:48:51;;;;;;;22.30;15.60;;;;;;;16.48;75.62;101624.41;5010005;28;20370;-53
2022/07/03 00:51:21;;;;;;;21.88;15.32;;;;;;;16.50;75.10;101627.72;5013732;28;20536;-53
2022/07/03 00:53:50;;;;;;;23.63;14.90;;;;;;;16.45;75.16;101622.28;5013427;28;20022;-53
2022/07/03 00:56:18;;;;;;;20.33;14.55;;;;;;;16.48;74.70;101618.84;4995354;28;20534;-53
2022/07/03 00:58:44;;;;;;;20.55;13.80;;;;;;;16.49;75.00;101625.25;5013158;28;20022;-53
2022/07/03 01:01:15;;;;;;;20.08;13.60;;;;;;;16.47;74.08;101619.16;5013512;28;20484;-54
2022/07/03 01:03:44;;;;;;;19.02;12.93;;;;;;;16.48;74.23;101630.00;4995984;28;20102;-54
2022/07/03 01:06:14;;;;;;;20.42;13.75;;;;;;;16.47;74.44;101621.97;5013501;28;20034;-54
2022/07/03 01:08:49;;;;;;;21.40;13.75;;;;;;;16.40;75.00;101616.06;5013463;28;20022;-53
2022/07/03 01:11:29;;;;;;;20.45;13.50;;;;;;;16.38;74.55;101625.56;5013140;28;20389;-55
2022/07/03 01:14:07;;;;;;;20.23;13.77;;;;;;;16.35;74.94;101620.63;5013581;28;20045;-54
2022/07/03 01:19:43;;;;;;;20.55;13.90;;;;;;;16.27;75.55;101615.84;5011354;28;20057;-50
2022/07/03 01:22:42;;;;;;;21.50;13.13;;;;;;;16.29;74.90;101626.72;5011568;28;20021;-51
2022/07/03 01:25:16;;;;;;;19.90;13.45;;;;;;;16.25;75.94;101623.72;5005051;28;20053;-52
2022/07/03 01:27:55;;;;;;;20.55;13.98;;;;;;;16.25;76.14;101625.72;5012094;28;20437;-53
2022/07/03 01:30:22;;;;;;;19.65;13.82;;;;;;;16.23;76.61;101628.84;5012657;28;20096;-53
2022/07/03 01:33:13;;;;;;;20.30;13.98;;;;;;;16.15;77.15;101629.66;5012452;28;20113;-51
2022/07/03 01:35:43;;;;;;;21.25;14.23;;;;;;;15.96;77.66;101613.19;5002118;28;20084;-51
2022/07/03 01:38:10;;;;;;;19.75;13.85;;;;;;;16.02;77.56;101623.88;4995473;28;20025;-52
2022/07/03 01:40:41;;;;;;;20.90;13.95;;;;;;;15.93;77.87;101625.81;5012624;28;20026;-53
2022/07/03 01:43:12;;;;;;;20.02;14.00;;;;;;;15.84;77.82;101617.41;5012525;28;20113;-58
2022/07/03 01:45:46;;;;;;;18.73;13.07;;;;;;;15.86;77.25;101625.47;5011613;28;20078;-52
2022/07/03 01:48:12;;;;;;;20.35;13.05;;;;;;;15.83;77.25;101620.50;5011591;28;20036;-53
2022/07/03 01:50:38;;;;;;;18.50;13.13;;;;;;;15.80;77.05;101633.13;5010424;28;20052;-52
2022/07/03 01:53:07;;;;;;;18.73;12.90;;;;;;;15.79;76.38;101633.44;5012367;28;20045;-53
2022/07/03 01:55:34;;;;;;;19.00;12.60;;;;;;;15.80;76.40;101629.50;5012007;28;20116;-52
2022/07/03 01:58:01;;;;;;;18.58;12.55;;;;;;;15.75;75.98;101622.94;5011785;28;20028;-47
2022/07/03 02:00:27;;;;;;;20.60;12.63;;;;;;;15.75;75.99;101627.69;5010713;28;20106;-47
2022/07/03 02:03:04;;;;;;;18.67;12.48;;;;;;;15.78;75.51;101629.00;5010959;28;20034;-52
2022/07/03 02:05:33;;;;;;;19.33;12.90;;;;;;;15.81;75.44;101629.19;5011217;28;20414;-51
2022/07/03 02:08:33;;;;;;;20.88;12.98;;;;;;;15.79;74.66;101623.13;5010418;28;20022;-53
2022/07/03 02:11:19;;;;;;;20.15;12.02;;;;;;;15.78;74.20;101618.69;5009395;28;20524;-49
2022/07/03 02:14:12;;;;;;;19.10;12.18;;;;;;;15.78;74.41;101629.00;5009914;28;20463;-51
2022/07/03 02:16:58;;;;;;;17.67;12.05;;;;;;;15.75;74.09;101610.94;5011206;28;20018;-52
2022/07/03 02:19:37;;;;;;;18.27;11.65;;;;;;;15.70;74.21;101620.28;4972656;28;20145;-52
2022/07/03 02:22:06;;;;;;;19.83;11.73;;;;;;;15.66;74.69;101615.66;4991725;28;20023;-52
2022/07/03 02:24:41;;;;;;;23.20;13.65;;;;;;;15.64;75.39;101626.31;4991645;28;20042;-54
2022/07/03 02:27:12;;;;;;;22.98;15.27;;;;;;;15.56;76.06;101608.44;4991750;28;20041;-53
2022/07/03 02:29:46;;;;;;;23.08;16.10;;;;;;;15.53;76.41;101609.91;4991537;28;20088;-53
2022/07/03 02:32:17;;;;;;;24.13;16.23;;;;;;;15.48;76.95;101614.78;4991445;28;20134;-53
2022/07/03 02:34:47;;;;;;;25.60;16.67;;;;;;;15.42;77.37;101616.91;4991514;28;20034;-52
2022/07/03 02:37:18;;;;;;;24.77;16.73;;;;;;;15.29;77.34;101602.72;4991863;28;20478;-49
2022/07/03 02:39:52;;;;;;;25.63;17.85;;;;;;;15.26;78.20;101600.56;4991690;28;20076;-52
2022/07/03 02:42:43;;;;;;;25.42;17.17;;;;;;;15.35;77.49;101617.34;4991189;28;20022;-51
2022/07/03 02:45:11;;;;;;;24.42;18.33;;;;;;;15.28;78.35;101615.00;4991442;28;20064;-51
2022/07/03 02:47:39;;;;;;;27.60;18.48;;;;;;;15.23;78.52;101605.97;4990996;28;20034;-54
2022/07/03 02:50:10;;;;;;;26.90;17.70;;;;;;;15.22;78.80;101607.09;4990932;28;20109;-50
2022/07/03 02:52:38;;;;;;;24.88;17.35;;;;;;;15.24;79.07;101614.03;4990705;28;20034;-52
2022/07/03 02:55:31;;;;;;;24.83;17.58;;;;;;;15.24;78.74;101618.75;4991244;28;20084;-51
2022/07/03 02:58:31;;;;;;;24.80;17.27;;;;;;;15.23;78.37;101619.91;4991614;28;20030;-51
2022/07/03 03:01:23;;;;;;;25.67;16.80;;;;;;;15.16;79.10;101625.09;4990767;28;20442;-52
2022/07/03 03:04:19;;;;;;;24.73;16.00;;;;;;;15.12;78.70;101620.16;4987317;28;20149;-53
2022/07/03 03:06:54;;;;;;;24.42;15.63;;;;;;;15.06;78.97;101613.09;4990522;28;20034;-51
2022/07/03 03:09:25;;;;;;;24.73;15.82;;;;;;;15.00;79.70;101616.31;4990241;28;20030;-52
2022/07/03 03:11:52;;;;;;;21.40;14.10;;;;;;;14.98;79.68;101620.22;4989367;28;20130;-52
2022/07/03 03:14:25;;;;;;;21.25;14.43;;;;;;;14.94;79.75;101612.81;4990529;28;20046;-50
2022/07/03 03:16:53;;;;;;;22.70;14.13;;;;;;;14.90;79.85;101617.41;4989991;28;20046;-52
2022/07/03 03:19:23;;;;;;;21.05;13.73;;;;;;;14.84;80.16;101616.72;4989941;28;20312;-52
2022/07/03 03:22:04;;;;;;;23.75;14.55;;;;;;;14.81;80.65;101614.53;4989921;28;20102;-50
2022/07/03 03:24:31;;;;;;;20.83;14.13;;;;;;;14.85;80.70;101621.13;4990375;28;20053;-52
2022/07/03 03:26:58;;;;;;;21.08;14.15;;;;;;;14.88;80.73;101628.84;4990669;28;20022;-52
2022/07/03 03:29:23;;;;;;;23.58;14.93;;;;;;;14.86;80.98;101628.38;4990436;28;20022;-52
2022/07/03 03:31:49;;;;;;;23.85;15.07;;;;;;;14.87;80.81;101624.44;4990402;28;20033;-54
2022/07/03 03:34:15;;;;;;;24.48;15.00;;;;;;;14.87;80.79;101626.38;4989975;28;20053;-52
2022/07/03 03:36:41;;;;;;;24.92;15.13;;;;;;;14.88;80.77;101628.03;4990692;28;20029;-51
2022/07/03 03:39:07;;;;;;;22.48;14.40;;;;;;;14.92;80.44;101629.06;4990075;28;20113;-52
2022/07/03 03:41:33;;;;;;;25.17;14.90;;;;;;;14.90;80.60;101622.97;4990789;28;20473;-50
2022/07/03 03:43:58;;;;;;;24.23;14.63;;;;;;;14.95;80.48;101633.97;4990789;28;20034;-51
2022/07/03 03:46:24;;;;;;;23.63;14.32;;;;;;;14.97;79.80;101620.56;4988993;28;20029;-52
2022/07/03 03:48:49;;;;;;;22.92;13.80;;;;;;;15.00;79.80;101627.44;4990462;28;20125;-51
2022/07/03 03:51:14;;;;;;;23.38;13.13;;;;;;;15.14;79.53;101636.59;4989944;28;20041;-52
2022/07/03 03:53:40;;;;;;;22.80;12.93;;;;;;;15.47;78.61;101646.59;4990215;28;20120;-50
2022/07/03 03:56:07;;;;;;;19.65;11.57;;;;;;;15.83;77.22;101640.84;4990138;28;20116;-50
2022/07/03 03:58:34;;;;;;;18.55;11.65;;;;;;;16.14;75.66;101634.41;4990317;28;20106;-53
2022/07/03 04:01:02;;;;;;;19.50;11.02;;;;;;;16.10;75.03;101635.38;4990179;28;20027;-52
2022/07/03 04:03:28;;;;;;;20.83;12.02;;;;;;;15.92;75.27;101629.75;4990015;28;20034;-51
2022/07/03 04:05:54;;;;;;;20.85;12.23;;;;;;;15.78;75.49;101629.00;4972558;28;20041;-52
2022/07/03 04:08:21;;;;;;;20.98;11.52;;;;;;;15.68;76.27;101630.94;4989926;28;20446;-52
2022/07/03 04:10:48;;;;;;;19.65;11.30;;;;;;;15.63;76.16;101627.50;4990241;28;20487;-52
2022/07/03 04:13:14;;;;;;;21.00;11.70;;;;;;;15.56;76.49;101625.97;4989883;28;20030;-52
2022/07/03 04:15:40;;;;;;;20.30;11.45;;;;;;;15.49;77.10;101628.41;4989531;28;20053;-52
2022/07/03 04:18:06;;;;;;;21.25;12.05;;;;;;;15.46;77.42;101625.44;4989419;28;20451;-52
2022/07/03 04:20:31;;;;;;;19.13;11.38;;;;;;;15.38;77.88;101630.66;4989951;28;20029;-53
2022/07/03 04:22:57;;;;;;;20.85;11.70;;;;;;;15.33;77.98;101628.00;4990631;28;20022;-53
2022/07/03 04:25:22;;;;;;;19.80;11.75;;;;;;;15.25;78.42;101631.56;4993720;28;20026;-52
2022/07/03 04:27:48;;;;;;;19.48;11.57;;;;;;;15.26;78.31;101630.41;4993641;28;20524;-50
2022/07/03 04:30:13;;;;;;;18.15;11.07;;;;;;;15.23;78.28;101636.63;4994040;28;20422;-52
2022/07/03 04:32:39;;;;;;;19.42;10.77;;;;;;;15.22;77.95;101638.59;4993455;28;20052;-52
2022/07/03 04:35:05;;;;;;;18.10;10.88;;;;;;;15.22;77.93;101646.97;4992429;28;20026;-53
2022/07/03 04:37:31;;;;;;;19.27;11.30;;;;;;;15.22;77.94;101651.69;4993016;28;20034;-53
2022/07/03 04:39:56;;;;;;;19.05;11.20;;;;;;;15.22;78.21;101646.97;4993686;28;20030;-53
2022/07/03 04:42:21;;;;;;;18.40;10.80;;;;;;;15.30;77.65;101645.38;4993227;28;20189;-52
2022/07/03 04:44:47;;;;;;;19.13;10.70;;;;;;;15.37;77.42;101645.72;4993118;28;20121;-53
2022/07/03 04:47:14;;;;;;;18.75;10.45;;;;;;;15.52;77.25;101654.81;4993266;28;20084;-53
2022/07/03 04:49:39;;;;;;;19.27;9.93;;;;;;;15.64;76.65;101652.25;4993828;28;20046;-53
2022/07/03 04:52:05;;;;;;;18.58;10.07;;;;;;;15.77;76.15;101647.72;4993363;28;20018;-53
2022/07/03 04:54:30;;;;;;;17.55;10.00;;;;;;;15.97;75.95;101639.94;4993385;28;20038;-53
2022/07/03 04:56:56;;;;;;;18.88;10.15;;;;;;;16.19;75.43;101641.78;4993317;28;20071;-53
2022/07/03 04:59:21;;;;;;;18.45;9.82;;;;;;;16.29;74.38;101649.88;4993477;28;20042;-54
2022/07/03 05:01:49;;;;;;;19.25;9.60;;;;;;;16.35;73.21;101633.78;4992763;28;20026;-55
2022/07/03 05:04:14;;;;;;;18.67;9.60;;;;;;;16.40;72.75;101646.75;4993186;28;20110;-56
2022/07/03 05:06:39;;;;;;;18.17;9.98;;;;;;;16.32;73.22;101649.22;4993161;28;20109;-53
2022/07/03 05:09:05;;;;;;;19.40;10.27;;;;;;;16.20;73.36;101647.03;4992856;28;20088;-53
2022/07/03 05:11:31;;;;;;;19.92;10.23;;;;;;;16.16;73.72;101657.22;4992979;28;20030;-53
2022/07/03 05:13:56;;;;;;;17.23;9.82;;;;;;;16.03;73.71;101653.44;4992947;28;20030;-56
2022/07/03 05:16:21;;;;;;;19.00;10.48;;;;;;;15.92;73.88;101638.13;4992629;28;20445;-53
2022/07/03 05:18:47;;;;;;;17.80;10.32;;;;;;;15.89;74.52;101652.72;4993369;28;20078;-53
2022/07/03 05:21:12;;;;;;;18.58;10.32;;;;;;;15.88;74.75;101653.84;4992942;28;20045;-55
2022/07/03 05:23:37;;;;;;;17.23;10.45;;;;;;;15.88;75.25;101660.28;4992728;28;20026;-57
2022/07/03 05:26:03;;;;;;;19.38;10.48;;;;;;;15.93;74.74;101670.47;4992720;28;20026;-53
2022/07/03 05:28:28;;;;;;;17.75;10.10;;;;;;;15.96;74.53;101663.41;4975413;28;20038;-52
2022/07/03 05:30:53;;;;;;;19.02;10.68;;;;;;;16.02;74.83;101656.53;4992298;28;20042;-56
2022/07/03 05:33:19;;;;;;;20.17;11.02;;;;;;;16.04;74.36;101670.97;4992853;28;20023;-52
2022/07/03 05:35:45;;;;;;;20.15;10.88;;;;;;;16.14;73.98;101655.91;4992124;28;20389;-52
2022/07/03 05:38:10;;;;;;;18.25;10.35;;;;;;;16.20;74.12;101661.00;4992808;28;20043;-54
2022/07/03 05:40:35;;;;;;;19.85;10.77;;;;;;;16.20;74.05;101661.00;4992466;28;20053;-54
2022/07/03 05:43:01;;;;;;;19.77;10.68;;;;;;;16.13;74.60;101662.66;4992614;28;20026;-53
2022/07/03 05:45:26;;;;;;;21.55;10.55;;;;;;;16.09;74.23;101664.44;4991942;28;20501;-50
2022/07/03 05:47:51;;;;;;;19.08;10.40;;;;;;;16.06;74.34;101661.13;4990260;28;20366;-52
2022/07/03 05:50:17;;;;;;;20.30;10.52;;;;;;;16.15;74.64;101671.53;4991931;28;20442;-52
2022/07/03 05:52:42;;;;;;;20.58;11.10;;;;;;;16.18;74.42;101670.84;4974644;28;20131;-52
2022/07/03 05:55:08;;;;;;;18.63;10.80;;;;;;;16.21;74.68;101664.63;4991916;28;20030;-52
2022/07/03 05:57:33;;;;;;;19.40;10.55;;;;;;;16.28;74.55;101673.34;4992225;28;20077;-53
2022/07/03 05:59:59;;;;;;;19.52;10.45;;;;;;;16.38;74.38;101675.03;4992502;28;20096;-53
2022/07/03 06:02:24;;;;;;;19.65;10.30;;;;;;;16.49;74.40;101675.53;4991678;28;20037;-52
2022/07/03 06:04:49;;;;;;;18.08;10.70;;;;;;;16.58;74.01;101672.75;4992027;28;20034;-53
2022/07/03 06:07:16;;;;;;;18.67;10.65;;;;;;;16.70;74.08;101675.69;4991793;28;20034;-55
2022/07/03 06:09:42;;;;;;;18.95;10.63;;;;;;;16.81;73.92;101671.44;4992364;28;20057;-55
2022/07/03 06:12:07;;;;;;;19.77;10.40;;;;;;;16.95;73.50;101676.06;4991665;28;20033;-53
2022/07/03 06:14:33;;;;;;;19.83;10.55;;;;;;;17.13;72.78;101676.88;4992005;28;20030;-53
2022/07/03 06:16:58;;;;;;;20.17;11.40;;;;;;;17.17;72.74;101677.03;4991577;28;20101;-55
2022/07/03 06:19:23;;;;;;;18.98;10.52;;;;;;;17.20;73.15;101679.16;4991829;28;20046;-54
2022/07/03 06:21:49;;;;;;;18.75;10.50;;;;;;;17.27;73.04;101687.88;4991474;28;20075;-49
2022/07/03 06:24:14;;;;;;;19.77;10.70;;;;;;;17.28;73.38;101686.72;4991723;28;20030;-53
2022/07/03 06:26:39;;;;;;;18.58;10.48;;;;;;;17.33;73.20;101682.91;4991909;28;20034;-52
2022/07/03 06:29:05;;;;;;;19.45;10.48;;;;;;;17.38;72.96;101685.56;4991907;28;20034;-52
2022/07/03 06:31:31;;;;;;;20.48;10.93;;;;;;;17.48;73.36;101687.16;4991835;28;20455;-52
2022/07/03 06:33:57;;;;;;;18.90;10.40;;;;;;;17.55;73.28;101681.88;4992216;28;20097;-57
2022/07/03 06:36:22;;;;;;;19.55;10.05;;;;;;;17.59;73.13;101688.47;4974235;28;20165;-52
2022/07/03 06:38:47;;;;;;;18.90;10.25;;;;;;;17.65;73.40;101683.50;4991685;28;20152;-56
2022/07/03 06:41:13;;;;;;;19.20;10.38;;;;;;;17.80;72.94;101693.34;4991993;28;20088;-53
2022/07/03 06:43:39;;;;;;;19.00;10.07;;;;;;;17.89;72.31;101688.53;4992225;28;20530;-52
2022/07/03 06:46:04;;;;;;;19.05;10.00;;;;;;;17.89;72.23;101680.13;4990251;28;20136;-53
2022/07/03 06:48:29;;;;;;;19.80;11.00;;;;;;;17.91;71.88;101686.19;4991520;28;20075;-52
2022/07/03 06:50:55;;;;;;;18.65;10.40;;;;;;;17.91;71.84;101686.19;4991630;28;20030;-53
2022/07/03 06:53:20;;;;;;;19.05;10.35;;;;;;;17.88;72.13;101676.50;4991388;28;20030;-53
2022/07/03 06:55:45;;;;;;;19.20;10.40;;;;;;;17.92;72.31;101682.22;4991232;28;20033;-52
2022/07/03 06:58:11;;;;;;;21.33;10.38;;;;;;;17.94;72.63;101679.94;4991191;28;20030;-53
2022/07/03 07:00:38;;;;;;;21.20;10.95;;;;;;;17.99;72.80;101682.59;4990759;28;20125;-52
2022/07/03 07:03:03;;;;;;;19.63;10.40;;;;;;;18.04;71.89;101687.16;4991338;28;20435;-52
2022/07/03 07:05:29;;;;;;;18.88;10.30;;;;;;;18.07;72.28;101683.66;4990982;28;20231;-53
2022/07/03 07:07:54;;;;;;;18.83;10.63;;;;;;;18.12;72.44;101693.84;4991069;28;20023;-53
2022/07/03 07:10:20;;;;;;;17.40;9.95;;;;;;;18.19;71.89;101686.59;4991196;28;20104;-51
2022/07/03 07:12:45;;;;;;;16.50;9.68;;;;;;;18.26;71.49;101688.84;4989810;28;20140;-52
2022/07/03 07:15:10;;;;;;;17.38;9.77;;;;;;;18.28;72.34;101683.72;4989642;28;20430;-53
2022/07/03 07:17:36;;;;;;;19.63;9.93;;;;;;;18.36;72.12;101682.88;4990688;28;20111;-53
2022/07/03 07:20:01;;;;;;;17.77;9.80;;;;;;;18.50;71.55;101678.97;4990777;28;20026;-52
2022/07/03 07:22:26;;;;;;;17.92;9.57;;;;;;;18.54;69.81;101677.16;4973108;28;20022;-53
2022/07/03 07:24:52;;;;;;;17.23;9.10;;;;;;;18.54;68.82;101691.16;4990724;28;20077;-53
2022/07/03 07:27:18;;;;;;;18.13;9.10;;;;;;;18.48;68.31;101679.31;4990728;28;20022;-53
2022/07/03 07:29:43;;;;;;;18.58;9.50;;;;;;;18.52;69.99;101685.88;4990610;28;20030;-53
2022/07/03 07:32:08;;;;;;;17.63;9.50;;;;;;;18.67;69.85;101687.25;4990817;28;20411;-53
2022/07/03 07:34:34;;;;;;;13.75;8.20;;;;;;;18.77;66.93;101688.84;4989181;28;20069;-52
2022/07/03 07:36:59;;;;;;;14.23;8.20;;;;;;;18.89;67.34;101692.88;4990805;28;20180;-50
2022/07/03 07:39:25;;;;;;;16.95;8.40;;;;;;;19.00;66.19;101694.94;4990886;28;20129;-53
2022/07/03 07:41:50;;;;;;;15.35;8.20;;;;;;;19.06;65.71;101701.16;4990823;28;20101;-51
2022/07/03 07:44:15;;;;;;;14.70;8.85;;;;;;;19.13;65.92;101704.22;4973499;28;20450;-50
2022/07/03 07:46:41;;;;;;;17.95;9.35;;;;;;;19.17;67.37;101707.16;4989035;28;20034;-52
2022/07/03 07:49:06;;;;;;;18.17;9.48;;;;;;;19.16;66.97;101709.16;4992993;28;20030;-52
2022/07/03 07:51:31;;;;;;;16.30;9.05;;;;;;;19.21;67.24;101705.31;4990249;28;20173;-52
2022/07/03 07:53:57;;;;;;;15.18;9.02;;;;;;;19.28;64.95;101713.97;4979029;28;20086;-53
2022/07/03 07:56:24;;;;;;;15.55;9.13;;;;;;;19.28;63.65;101707.53;4978446;28;20478;-52
2022/07/03 07:58:51;;;;;;;19.45;10.35;;;;;;;19.32;64.53;101708.50;4980939;28;20045;-53
2022/07/03 08:06:45;;;;;;;;;;;;;;;19.51;63.64;101707.16;4979925;28;20411;-53
2022/07/03 08:09:10;;;;;;;18.93;9.10;;;;;;;19.50;63.60;101703.53;4979680;28;19913;-53
2022/07/03 08:11:35;;;;;;;17.80;8.75;;;;;;;19.59;64.28;101707.06;4978524;28;20286;-54
2022/07/03 08:14:01;;;;;;;18.00;9.20;;;;;;;19.66;64.79;101708.47;4979938;28;20456;-52
2022/07/03 08:16:26;;;;;;;17.40;9.40;;;;;;;19.62;64.32;101699.94;4981688;28;20026;-54
2022/07/03 08:18:52;;;;;;;16.95;8.90;;;;;;;19.68;63.61;101703.34;4982757;28;20059;-54
2022/07/03 08:21:17;;;;;;;16.85;9.18;;;;;;;19.70;63.69;101710.22;4979866;28;20045;-53
2022/07/03 08:23:43;;;;;;;15.23;8.52;;;;;;;19.87;62.62;101714.88;4979181;28;20079;-53
2022/07/03 08:26:08;;;;;;;15.93;8.57;;;;;;;19.90;62.23;101710.53;4990266;28;20053;-53
2022/07/03 08:28:33;;;;;;;17.15;9.48;;;;;;;20.01;62.48;101713.69;4990785;28;20113;-54
2022/07/03 08:30:59;;;;;;;15.13;8.70;;;;;;;19.96;61.51;101706.31;4990318;28;20168;-53
2022/07/03 08:33:24;;;;;;;15.13;8.70;;;;;;;19.91;60.79;101720.59;4977236;28;20030;-53
2022/07/03 08:35:49;;;;;;;16.02;8.70;;;;;;;19.89;61.34;101712.50;4981374;28;20411;-53
2022/07/03 08:38:15;;;;;;;18.40;8.85;;;;;;;20.03;61.72;101719.78;4969041;28;20037;-54
2022/07/03 08:40:43;;;;;;;16.27;8.70;;;;;;;20.13;60.32;101712.88;4968659;28;20050;-50
2022/07/03 08:43:08;;;;;;;17.45;8.57;;;;;;;20.25;61.27;101710.91;4967931;28;20038;-51
2022/07/03 08:45:37;;;;;;;14.05;8.05;;;;;;;20.32;60.40;101712.28;4968580;28;20027;-53
2022/07/03 08:48:04;;;;;;;16.52;8.73;;;;;;;20.33;60.22;101711.94;4968891;28;20118;-52
2022/07/03 08:50:33;;;;;;;17.27;8.90;;;;;;;20.20;60.75;101694.25;4968795;28;20042;-50
2022/07/03 08:52:59;;;;;;;16.48;8.73;;;;;;;20.37;60.34;101698.81;4968844;28;20033;-49
2022/07/03 08:55:24;;;;;;;15.65;8.55;;;;;;;20.52;60.74;101702.91;4968518;28;20104;-52
2022/07/03 08:57:50;;;;;;;16.83;8.80;;;;;;;20.56;59.78;101703.81;4967627;28;20213;-52
2022/07/03 09:00:17;;;;;;;18.60;9.93;;;;;;;20.56;59.54;101703.81;4968955;28;20066;-53
2022/07/03 09:02:45;;;;;;;15.90;8.35;;;;;;;20.67;58.92;101709.78;4969213;28;20038;-48
2022/07/03 09:05:11;;;;;;;12.23;7.28;;;;;;;20.78;56.02;101709.31;4969036;28;20045;-51
2022/07/03 09:07:40;;;;;;;15.05;7.88;;;;;;;20.77;56.06;101708.50;4969275;28;20039;-52
2022/07/03 09:10:08;;;;;;;14.95;7.88;;;;;;;20.72;56.74;101705.91;4969971;28;20109;-50
2022/07/03 09:12:33;;;;;;;14.77;7.75;;;;;;;20.74;57.22;101700.75;4970483;28;20031;-51
2022/07/03 09:15:00;;;;;;;15.50;7.90;;;;;;;20.81;57.61;101706.63;4954579;28;20056;-54
2022/07/03 09:17:27;;;;;;;14.55;7.97;;;;;;;20.83;58.06;101693.00;4972026;28;20442;-54
2022/07/03 09:19:52;;;;;;;13.80;7.53;;;;;;;20.98;57.17;101694.25;4973247;28;20031;-54
2022/07/03 09:22:25;;;;;;;15.80;8.02;;;;;;;21.10;57.54;101703.81;4972335;28;20030;-54
2022/07/03 09:25:06;;;;;;;18.05;8.60;;;;;;;21.13;57.05;101703.91;4971627;28;20026;-53
2022/07/03 09:27:32;;;;;;;16.95;8.25;;;;;;;21.19;56.96;101699.69;4971460;28;20031;-52
2022/07/03 09:30:00;;;;;;;13.20;8.07;;;;;;;21.22;57.67;101686.03;4971740;28;20405;-55
2022/07/03 09:32:30;;;;;;;14.60;7.65;;;;;;;21.37;57.75;101709.78;4971974;28;20466;-54
2022/07/03 09:35:22;;;;;;;15.60;8.48;;;;;;;21.37;58.06;101706.97;4971663;28;20050;-53
2022/07/03 09:38:01;;;;;;;12.63;8.10;;;;;;;21.38;56.41;101711.41;4972005;28;20034;-53
2022/07/03 09:40:47;;;;;;;16.15;8.52;;;;;;;21.41;55.81;101703.06;4954456;28;20071;-54
2022/07/03 09:43:12;;;;;;;12.07;7.57;;;;;;;21.63;54.32;101712.94;4971574;28;20039;-52
2022/07/03 09:45:57;;;;;;;14.73;8.35;;;;;;;21.66;55.52;101720.66;4971576;28;20026;-55
2022/07/03 09:48:23;;;;;;;18.05;8.60;;;;;;;21.78;54.41;101714.13;4971548;28;20133;-53
2022/07/03 09:50:48;;;;;;;14.13;8.43;;;;;;;21.61;54.16;101720.94;4971167;28;20042;-53
2022/07/03 09:53:13;;;;;;;15.68;8.95;;;;;;;21.63;55.02;101727.00;4971550;28;20661;-50
2022/07/03 09:55:39;;;;;;;18.48;9.48;;;;;;;21.62;54.46;101733.84;4970222;28;20102;-51
2022/07/03 09:58:04;;;;;;;17.70;9.70;;;;;;;21.74;54.90;101727.31;4970183;28;20042;-54
2022/07/03 10:00:35;;;;;;;18.25;9.60;;;;;;;21.86;54.40;101701.06;4971705;28;20486;-54
2022/07/03 10:03:09;;;;;;;17.70;10.02;;;;;;;22.04;54.73;101715.59;4954095;28;20061;-53
2022/07/03 10:05:41;;;;;;;17.48;9.90;;;;;;;22.25;54.22;101715.31;4971104;28;20439;-52
2022/07/03 10:08:10;;;;;;;19.65;10.27;;;;;;;22.44;54.98;101716.56;4971152;28;20087;-53
2022/07/03 10:10:39;;;;;;;15.52;9.80;;;;;;;22.65;53.98;101710.59;4969635;28;20034;-52
2022/07/03 10:13:05;;;;;;;18.52;10.70;;;;;;;22.71;53.03;101726.06;4970965;28;20022;-53
2022/07/03 10:15:32;;;;;;;16.52;9.27;;;;;;;22.37;53.51;101719.22;4970936;28;20512;-51
2022/07/03 10:17:59;;;;;;;16.08;9.30;;;;;;;22.13;51.14;101730.31;4970480;28;20062;-53
2022/07/03 10:20:33;;;;;;;13.70;8.30;;;;;;;22.07;52.28;101728.16;4970586;28;20198;-53
2022/07/03 10:23:00;;;;;;;15.77;9.05;;;;;;;22.06;52.37;101727.31;4971295;28;20352;-55
2022/07/03 10:25:25;;;;;;;14.77;8.60;;;;;;;22.26;52.76;101728.22;4971580;28;20093;-50
2022/07/03 10:27:51;;;;;;;13.57;8.80;;;;;;;22.42;51.79;101725.41;4970531;28;20430;-50
2022/07/03 10:30:18;;;;;;;15.00;8.50;;;;;;;22.56;50.28;101718.44;4970635;28;20427;-51
2022/07/03 10:32:47;;;;;;;15.45;8.40;;;;;;;22.74;49.06;101724.50;4970813;28;20104;-53
2022/07/03 10:35:20;;;;;;;13.88;8.38;;;;;;;22.96;49.70;101734.25;4970392;28;20109;-53
2022/07/03 10:38:00;;;;;;;15.55;9.00;;;;;;;23.15;49.61;101733.41;4971053;28;20029;-53
2022/07/03 10:46:21;;;;;;;16.45;8.98;;;;;;;23.31;48.48;101730.53;4970242;28;20069;-54
2022/07/03 10:49:04;;;;;;;15.73;9.35;;;;;;;23.02;49.52;101717.84;4969815;28;20027;-54
2022/07/03 10:51:31;;;;;;;16.85;9.80;;;;;;;22.96;50.08;101714.50;4968732;28;20113;-53
2022/07/03 10:54:20;;;;;;;14.55;8.93;;;;;;;23.24;51.35;101733.25;4969940;28;20030;-57
2022/07/03 10:56:57;;;;;;;15.93;9.15;;;;;;;23.39;50.12;101733.50;4968746;28;20102;-62
2022/07/03 10:59:46;;;;;;;13.93;8.38;;;;;;;23.24;48.03;101741.69;4970052;28;20038;-54
2022/07/03 11:02:26;;;;;;;13.23;8.20;;;;;;;23.06;48.01;101741.28;4968192;28;20394;-54
2022/07/03 11:07:24;;;;;;;14.02;8.10;;;;;;;23.29;48.06;101740.59;4969847;28;20057;-54
2022/07/03 11:10:09;;;;;;;14.68;8.30;;;;;;;23.34;46.28;101738.28;4968479;28;20357;-49
2022/07/03 11:12:53;;;;;;;15.65;8.18;;;;;;;23.19;47.29;101730.72;4950753;28;20092;-52
2022/07/03 11:15:40;;;;;;;14.48;8.50;;;;;;;23.14;47.25;101729.00;4970347;28;20027;-53
2022/07/03 11:18:11;;;;;;;11.27;7.53;;;;;;;23.28;47.16;101722.84;4970151;28;20109;-52
2022/07/03 11:20:49;;;;;;;10.57;7.40;;;;;;;23.25;44.75;101719.94;4970176;28;20035;-50
2022/07/03 11:23:27;;;;;;;12.57;7.40;;;;;;;22.99;45.12;101727.03;4969818;28;20031;-50
2022/07/03 11:26:16;;;;;;;13.15;7.70;;;;;;;22.92;46.03;101727.69;4969658;28;20478;-50
2022/07/03 11:28:41;;;;;;;14.18;7.90;;;;;;;23.11;46.87;101720.44;4964841;28;20053;-51
2022/07/03 11:31:18;;;;;;;12.83;8.53;;;;;;;23.28;47.98;101725.66;4970658;28;20394;-52
2022/07/03 11:33:45;;;;;;;11.55;7.80;;;;;;;23.20;46.83;101713.41;4970147;28;20276;-53
2022/07/03 11:36:22;;;;;;;12.10;7.78;;;;;;;23.31;46.29;101712.81;4970773;28;20097;-52
2022/07/03 11:39:00;;;;;;;13.80;7.40;;;;;;;23.42;44.76;101708.19;4952894;28;20125;-51